createdAt,value
2018-02-14T00:00:40.201Z,56.30
2018-02-14T00:03:07.686Z,56.30
2018-02-14T00:05:35.939Z,56.30
2018-02-14T00:08:03.428Z,56.30
2018-02-14T00:10:30.895Z,56.30
2018-02-14T00:12:58.486Z,56.30
2018-02-14T00:15:26.770Z,56.10
2018-02-14T00:17:54.274Z,56.10
2018-02-14T00:20:21.753Z,56.10
2018-02-14T00:22:49.250Z,56.90
2018-02-14T00:25:16.763Z,56.20
2018-02-14T00:27:44.231Z,56.20
2018-02-14T00:30:11.724Z,56.30
2018-02-14T00:32:39.963Z,56.90
2018-02-14T00:35:07.468Z,56.40
2018-02-14T00:37:35.707Z,56.60
2018-02-14T00:40:03.191Z,56.60
2018-02-14T00:42:31.432Z,56.70
2018-02-14T00:44:58.898Z,56.70
2018-02-14T00:47:26.387Z,56.60
2018-02-14T00:49:54.623Z,56.60
2018-02-14T00:52:22.109Z,56.60
2018-02-14T00:54:49.596Z,56.60
2018-02-14T00:57:17.078Z,56.80
2018-02-14T00:59:44.545Z,56.70
2018-02-14T01:02:12.016Z,56.80
2018-02-14T01:04:39.498Z,56.80
2018-02-14T01:07:07.761Z,57.00
2018-02-14T01:09:35.994Z,57.00
2018-02-14T01:12:03.527Z,57.00
2018-02-14T01:14:30.988Z,57.20
2018-02-14T01:16:58.447Z,57.40
2018-02-14T01:19:25.934Z,57.40
2018-02-14T01:21:53.407Z,57.40
2018-02-14T01:24:20.898Z,57.50
2018-02-14T01:26:48.378Z,57.40
2018-02-14T01:29:15.865Z,57.70
2018-02-14T01:31:43.346Z,57.90
2018-02-14T01:34:11.598Z,58.10
2018-02-14T01:36:39.101Z,58.00
2018-02-14T01:39:06.583Z,58.70
2018-02-14T01:41:34.087Z,58.30
2018-02-14T01:44:02.318Z,58.40
2018-02-14T01:46:29.824Z,58.40
2018-02-14T01:48:58.054Z,58.60
2018-02-14T01:51:25.550Z,58.50
2018-02-14T01:53:53.788Z,58.80
2018-02-14T01:56:21.286Z,58.80
2018-02-14T01:58:48.793Z,58.70
2018-02-14T02:01:16.254Z,58.80
2018-02-14T02:03:43.744Z,59.00
2018-02-14T02:06:12.004Z,59.20
2018-02-14T02:08:39.507Z,59.10
2018-02-14T02:11:07.002Z,59.20
2018-02-14T02:13:34.508Z,59.30
2018-02-14T02:16:02.007Z,59.60
2018-02-14T02:18:29.511Z,59.80
2018-02-14T02:20:57.746Z,59.70
2018-02-14T02:23:26.016Z,59.70
2018-02-14T02:25:53.499Z,59.70
2018-02-14T02:28:21.003Z,60.00
2018-02-14T02:30:48.490Z,60.10
2018-02-14T02:33:16.018Z,60.00
2018-02-14T02:35:43.509Z,60.20
2018-02-14T02:38:11.008Z,60.20
2018-02-14T02:40:42.281Z,60.30
2018-02-14T02:43:09.770Z,60.60
2018-02-14T02:45:37.263Z,60.60
2018-02-14T02:48:04.744Z,61.00
2018-02-14T02:50:32.246Z,60.60
2018-02-14T02:52:59.721Z,60.60
2018-02-14T02:55:27.967Z,60.80
2018-02-14T02:57:55.624Z,60.60
2018-02-14T03:00:23.130Z,60.70
2018-02-14T03:02:50.619Z,60.70
2018-02-14T03:05:18.128Z,60.70
2018-02-14T03:07:46.372Z,60.90
2018-02-14T03:10:13.850Z,60.80
2018-02-14T03:12:42.094Z,61.10
2018-02-14T03:15:09.588Z,61.10
2018-02-14T03:17:43.804Z,61.20
2018-02-14T03:20:12.041Z,61.20
2018-02-14T03:22:39.530Z,61.20
2018-02-14T03:25:07.759Z,61.40
2018-02-14T03:27:35.241Z,61.30
2018-02-14T03:30:02.727Z,61.60
2018-02-14T03:32:30.217Z,61.60
2018-02-14T03:34:57.690Z,61.90
2018-02-14T03:37:25.166Z,61.90
2018-02-14T03:39:53.406Z,61.70
2018-02-14T03:42:20.879Z,61.70
2018-02-14T03:44:48.352Z,61.50
2018-02-14T03:47:15.842Z,61.80
2018-02-14T03:49:43.315Z,62.00
2018-02-14T03:52:10.798Z,62.00
2018-02-14T03:54:38.329Z,61.70
2018-02-14T03:57:05.808Z,61.70
2018-02-14T03:59:33.284Z,61.70
2018-02-14T04:02:00.771Z,61.80
2018-02-14T04:04:28.247Z,62.00
2018-02-14T04:06:55.705Z,61.90
2018-02-14T04:09:23.197Z,62.00
2018-02-14T04:11:51.447Z,62.00
2018-02-14T04:14:18.939Z,62.00
2018-02-14T04:16:46.406Z,61.90
2018-02-14T04:19:14.659Z,61.70
2018-02-14T04:21:42.137Z,61.70
2018-02-14T04:24:10.405Z,62.50
2018-02-14T04:26:37.855Z,61.80
2018-02-14T04:29:05.336Z,61.80
2018-02-14T04:31:33.589Z,62.20
2018-02-14T04:34:01.077Z,62.20
2018-02-14T04:36:28.578Z,62.30
2018-02-14T04:38:56.072Z,62.20
2018-02-14T04:41:24.311Z,62.60
2018-02-14T04:43:51.782Z,62.50
2018-02-14T04:46:19.239Z,62.50
2018-02-14T04:48:46.722Z,62.70
2018-02-14T04:51:14.945Z,62.50
2018-02-14T04:53:42.444Z,62.50
2018-02-14T04:56:10.678Z,62.70
2018-02-14T04:58:38.151Z,62.70
2018-02-14T05:01:05.638Z,62.70
2018-02-14T05:03:33.878Z,63.20
2018-02-14T05:06:01.354Z,63.10
2018-02-14T05:08:29.618Z,63.20
2018-02-14T05:10:57.883Z,63.50
2018-02-14T05:13:25.361Z,63.30
2018-02-14T05:15:53.639Z,63.70
2018-02-14T05:18:21.875Z,63.80
2018-02-14T05:20:49.350Z,63.70
2018-02-14T05:23:16.838Z,63.80
2018-02-14T05:25:44.310Z,63.70
2018-02-14T05:28:11.802Z,63.80
2018-02-14T05:30:39.277Z,63.90
2018-02-14T05:33:06.765Z,64.00
2018-02-14T05:35:34.247Z,64.10
2018-02-14T05:38:01.729Z,64.20
2018-02-14T05:40:29.236Z,64.40
2018-02-14T05:42:56.732Z,64.60
2018-02-14T05:45:24.209Z,64.70
2018-02-14T05:47:51.689Z,64.60
2018-02-14T05:50:19.942Z,65.40
2018-02-14T05:52:47.438Z,65.30
2018-02-14T05:55:14.912Z,65.50
2018-02-14T05:57:42.409Z,65.80
2018-02-14T06:00:09.888Z,65.80
2018-02-14T06:02:38.414Z,66.20
2018-02-14T06:05:06.897Z,66.00
2018-02-14T06:07:34.377Z,66.20
2018-02-14T06:10:01.875Z,66.20
2018-02-14T06:12:29.394Z,66.30
2018-02-14T06:14:56.911Z,66.40
2018-02-14T06:17:24.595Z,66.40
2018-02-14T06:19:53.134Z,66.30
2018-02-14T06:22:20.619Z,66.40
2018-02-14T06:24:48.099Z,66.60
2018-02-14T06:27:15.588Z,66.70
2018-02-14T06:29:43.851Z,66.70
2018-02-14T06:32:12.132Z,66.80
2018-02-14T06:34:40.599Z,66.70
2018-02-14T06:37:08.083Z,66.70
2018-02-14T06:39:35.565Z,67.40
2018-02-14T06:42:03.090Z,66.90
2018-02-14T06:44:31.351Z,66.90
2018-02-14T06:46:59.583Z,66.60
2018-02-14T06:49:27.053Z,66.50
2018-02-14T06:51:54.520Z,66.70
2018-02-14T06:54:22.018Z,66.40
2018-02-14T06:56:49.486Z,66.40
2018-02-14T06:59:16.991Z,66.40
2018-02-14T07:01:44.462Z,66.20
2018-02-14T07:04:12.698Z,66.10
2018-02-14T07:06:40.189Z,66.10
2018-02-14T07:09:08.426Z,65.60
2018-02-14T07:11:35.911Z,65.60
2018-02-14T07:14:03.607Z,65.40
2018-02-14T07:16:32.508Z,65.70
2018-02-14T07:19:00.028Z,64.80
2018-02-14T07:21:28.295Z,62.20
2018-02-14T07:23:55.768Z,62.00
2018-02-14T07:26:24.033Z,58.40
2018-02-14T07:28:52.315Z,58.50
2018-02-14T07:31:20.556Z,57.40
2018-02-14T07:33:48.038Z,57.30
2018-02-14T07:36:16.275Z,56.20
2018-02-14T07:38:43.764Z,56.20
2018-02-14T07:41:12.976Z,55.90
2018-02-14T07:43:41.229Z,54.30
2018-02-14T07:46:08.698Z,54.30
2018-02-14T07:48:36.962Z,52.40
2018-02-14T07:51:04.445Z,52.40
2018-02-14T07:53:31.931Z,52.10
2018-02-14T07:55:59.391Z,50.50
2018-02-14T07:58:26.888Z,48.30
2018-02-14T08:00:55.126Z,45.60
2018-02-14T08:03:24.476Z,45.50
2018-02-14T08:05:52.711Z,42.10
2018-02-14T08:08:20.203Z,42.10
2018-02-14T08:10:48.459Z,40.90
2018-02-14T08:13:15.969Z,40.90
2018-02-14T08:15:43.452Z,40.50
2018-02-14T08:18:10.925Z,39.90
2018-02-14T08:20:38.414Z,39.30
2018-02-14T08:23:06.648Z,38.10
2018-02-14T08:25:34.137Z,38.00
2018-02-14T08:28:02.394Z,37.80
2018-02-14T08:30:29.887Z,37.80
2018-02-14T08:32:57.354Z,38.60
2018-02-14T08:35:24.839Z,38.60
2018-02-14T08:37:52.312Z,37.80
2018-02-14T08:40:19.813Z,37.80
2018-02-14T08:42:47.291Z,37.90
2018-02-14T08:45:14.766Z,38.20
2018-02-14T08:47:43.741Z,37.80
2018-02-14T08:50:11.244Z,37.80
2018-02-14T08:52:39.488Z,37.40
2018-02-14T08:55:06.974Z,37.50
2018-02-14T08:57:35.223Z,36.80
2018-02-14T09:00:02.702Z,36.60
2018-02-14T09:02:31.784Z,36.60
2018-02-14T09:04:59.267Z,36.60
2018-02-14T09:07:27.513Z,36.20
2018-02-14T09:09:54.988Z,36.20
2018-02-14T09:12:23.271Z,37.20
2018-02-14T09:14:51.592Z,36.30
2018-02-14T09:17:19.549Z,36.30
2018-02-14T09:19:47.038Z,36.00
2018-02-14T09:22:14.527Z,35.90
2018-02-14T09:24:42.785Z,34.30
2018-02-14T09:27:10.264Z,34.20
2018-02-14T09:29:37.734Z,33.40
2018-02-14T09:32:05.214Z,33.90
2018-02-14T09:34:32.697Z,34.00
2018-02-14T09:37:00.206Z,34.00
2018-02-14T09:39:28.407Z,33.50
2018-02-14T09:41:55.862Z,33.50
2018-02-14T09:44:23.348Z,33.40
2018-02-14T09:46:51.701Z,33.10
2018-02-14T09:49:19.186Z,33.10
2018-02-14T09:51:47.435Z,31.60
2018-02-14T09:54:14.938Z,31.60
2018-02-14T09:56:42.487Z,29.90
2018-02-14T09:59:10.771Z,28.60
2018-02-14T10:01:38.237Z,28.60
2018-02-14T10:04:05.719Z,28.50
2018-02-14T10:06:33.220Z,28.40
2018-02-14T10:09:01.464Z,28.70
2018-02-14T10:11:29.126Z,28.40
2018-02-14T10:13:56.597Z,28.10
2018-02-14T10:16:24.097Z,29.00
2018-02-14T10:18:51.562Z,28.80
2018-02-14T10:21:19.049Z,27.50
2018-02-14T10:23:46.528Z,27.60
2018-02-14T10:26:14.033Z,28.70
2018-02-14T10:28:41.535Z,28.40
2018-02-14T10:31:09.022Z,28.80
2018-02-14T10:33:36.502Z,28.20
2018-02-14T10:36:04.002Z,28.70
2018-02-14T10:38:31.492Z,28.40
2018-02-14T10:40:58.971Z,27.90
2018-02-14T10:43:26.455Z,28.40
2018-02-14T10:45:53.931Z,28.40
2018-02-14T10:48:21.468Z,28.30
2018-02-14T10:50:49.000Z,27.20
2018-02-14T10:53:16.593Z,27.80
2018-02-14T10:55:44.100Z,28.00
2018-02-14T10:58:11.738Z,28.50
2018-02-14T11:00:45.566Z,30.00
2018-02-14T11:03:20.463Z,30.00
2018-02-14T11:05:53.649Z,30.40
2018-02-14T11:08:22.026Z,33.30
2018-02-14T11:10:51.041Z,33.40
2018-02-14T11:13:19.365Z,34.40
2018-02-14T11:15:46.867Z,34.40
2018-02-14T11:18:15.117Z,35.80
2018-02-14T11:20:42.626Z,35.80
2018-02-14T11:23:10.099Z,36.40
2018-02-14T11:25:37.641Z,35.90
2018-02-14T11:28:05.111Z,35.40
2018-02-14T11:30:32.617Z,35.70
2018-02-14T11:33:00.861Z,35.40
2018-02-14T11:35:28.336Z,35.40
2018-02-14T11:37:56.570Z,35.60
2018-02-14T11:40:24.043Z,35.00
2018-02-14T11:42:51.537Z,34.90
2018-02-14T11:45:19.784Z,35.70
2018-02-14T11:47:47.273Z,35.50
2018-02-14T11:50:14.768Z,34.30
2018-02-14T11:52:42.236Z,34.50
2018-02-14T11:55:09.711Z,34.10
2018-02-14T11:57:37.182Z,34.50
2018-02-14T12:00:05.481Z,34.90
2018-02-14T12:02:32.986Z,34.90
2018-02-14T12:05:00.473Z,34.70
2018-02-14T12:07:28.728Z,35.00
2018-02-14T12:09:56.969Z,34.00
2018-02-14T12:12:24.443Z,34.00
2018-02-14T12:14:51.914Z,33.90
2018-02-14T12:17:19.935Z,33.40
2018-02-14T12:19:47.408Z,33.60
2018-02-14T12:22:14.892Z,34.00
2018-02-14T12:24:42.367Z,34.50
2018-02-14T12:27:10.662Z,34.80
2018-02-14T12:29:38.174Z,34.80
2018-02-14T12:32:05.636Z,34.80
2018-02-14T12:34:33.123Z,34.80
2018-02-14T12:37:01.370Z,34.10
2018-02-14T12:39:28.888Z,34.10
2018-02-14T12:41:56.362Z,34.70
2018-02-14T12:44:33.464Z,34.50
2018-02-14T12:47:00.938Z,35.00
2018-02-14T12:49:29.186Z,33.70
2018-02-14T12:51:56.653Z,33.60
2018-02-14T12:54:24.145Z,33.70
2018-02-14T12:56:51.625Z,33.60
2018-02-14T12:59:19.162Z,33.40
2018-02-14T13:01:46.631Z,32.90
2018-02-14T13:04:14.125Z,33.40
2018-02-14T13:09:34.867Z,33.30
2018-02-14T13:12:03.117Z,32.60
2018-02-14T13:14:30.687Z,32.60
2018-02-14T13:16:58.168Z,32.20
2018-02-14T13:19:26.414Z,32.40
2018-02-14T13:21:53.901Z,32.40
2018-02-14T13:24:22.178Z,31.60
2018-02-14T13:26:49.660Z,31.60
2018-02-14T13:29:17.156Z,31.40
2018-02-14T13:31:44.635Z,31.00
2018-02-14T13:34:12.863Z,31.20
2018-02-14T13:36:40.357Z,31.20
2018-02-14T13:39:08.608Z,30.50
2018-02-14T13:41:36.337Z,30.50
2018-02-14T13:44:03.850Z,30.90
2018-02-14T13:46:32.123Z,31.40
2018-02-14T13:49:00.352Z,31.90
2018-02-14T13:51:27.828Z,31.80
2018-02-14T13:53:55.341Z,32.40
2018-02-14T13:56:22.835Z,33.00
2018-02-14T13:58:50.296Z,32.70
2018-02-14T14:01:17.809Z,33.00
2018-02-14T14:03:45.284Z,33.00
2018-02-14T14:06:12.773Z,32.30
2018-02-14T14:08:40.244Z,32.40
2018-02-14T14:11:08.490Z,32.40
2018-02-14T14:13:35.998Z,32.30
2018-02-14T14:16:03.490Z,32.00
2018-02-14T14:18:30.958Z,32.00
2018-02-14T14:20:58.431Z,32.00
2018-02-14T14:23:25.893Z,32.00
2018-02-14T14:25:53.426Z,31.40
2018-02-14T14:28:20.888Z,31.40
2018-02-14T14:30:48.347Z,31.20
2018-02-14T14:33:15.880Z,31.40
2018-02-14T14:35:43.362Z,31.50
2018-02-14T14:38:11.656Z,32.10
2018-02-14T14:40:39.882Z,32.10
2018-02-14T14:43:07.362Z,32.00
2018-02-14T14:45:34.872Z,31.50
2018-02-14T14:48:02.353Z,30.80
2018-02-14T14:50:29.861Z,31.00
2018-02-14T14:52:58.186Z,31.20
2018-02-14T14:55:25.682Z,31.20
2018-02-14T14:57:53.169Z,31.20
2018-02-14T15:00:20.711Z,31.80
2018-02-14T15:02:48.949Z,31.50
2018-02-14T15:05:16.470Z,31.50
2018-02-14T15:07:43.965Z,30.50
2018-02-14T15:10:11.452Z,30.80
2018-02-14T15:12:39.683Z,30.80
2018-02-14T15:15:07.174Z,30.80
2018-02-14T15:17:34.659Z,30.50
2018-02-14T15:20:02.158Z,31.10
2018-02-14T15:22:29.655Z,30.40
2018-02-14T15:24:57.920Z,30.20
2018-02-14T15:27:26.158Z,30.00
2018-02-14T15:29:53.697Z,30.00
2018-02-14T15:32:21.225Z,29.90
2018-02-14T15:34:49.472Z,30.40
2018-02-14T15:37:16.959Z,30.40
2018-02-14T15:39:44.901Z,31.10
2018-02-14T15:42:12.391Z,30.40
2018-02-14T15:44:41.747Z,30.50
2018-02-14T15:47:09.216Z,30.50
2018-02-14T15:49:38.489Z,31.30
2018-02-14T15:52:05.986Z,31.30
2018-02-14T15:54:34.287Z,31.10
2018-02-14T15:57:01.784Z,31.10
2018-02-14T15:59:29.276Z,31.20
2018-02-14T16:01:56.800Z,31.20
2018-02-14T16:04:24.266Z,31.40
2018-02-14T16:06:51.734Z,31.20
2018-02-14T16:09:19.986Z,31.60
2018-02-14T16:11:47.504Z,31.60
2018-02-14T16:14:14.991Z,31.60
2018-02-14T16:16:42.474Z,32.00
2018-02-14T16:19:10.807Z,32.20
2018-02-14T16:21:38.315Z,32.20
2018-02-14T16:24:06.583Z,32.60
2018-02-14T16:26:34.819Z,32.50
2018-02-14T16:29:02.345Z,32.40
2018-02-14T16:31:29.803Z,32.00
2018-02-14T16:33:57.296Z,31.80
2018-02-14T16:36:24.755Z,31.80
2018-02-14T16:38:52.330Z,31.70
2018-02-14T16:41:19.840Z,31.70
2018-02-14T16:43:47.322Z,32.20
2018-02-14T16:46:14.810Z,32.20
2018-02-14T16:48:45.208Z,32.40
2018-02-14T16:51:12.695Z,32.70
2018-02-14T16:53:40.980Z,33.40
2018-02-14T16:56:09.973Z,33.40
2018-02-14T16:58:37.461Z,33.60
2018-02-14T17:01:04.951Z,33.80
2018-02-14T17:03:32.465Z,34.00
2018-02-14T17:05:59.964Z,34.30
2018-02-14T17:08:27.440Z,34.70
2018-02-14T17:10:55.015Z,34.90
2018-02-14T17:13:22.511Z,35.00
2018-02-14T17:15:49.996Z,35.30
2018-02-14T17:18:17.497Z,35.60
2018-02-14T17:20:44.978Z,36.00
2018-02-14T17:23:12.466Z,36.30
2018-02-14T17:25:40.737Z,36.60
2018-02-14T17:28:08.237Z,36.60
2018-02-14T17:30:35.732Z,36.90
2018-02-14T17:33:03.226Z,37.10
2018-02-14T17:35:31.489Z,38.00
2018-02-14T17:37:59.726Z,38.30
2018-02-14T17:40:27.211Z,38.30
2018-02-14T17:42:54.685Z,38.60
2018-02-14T17:45:22.176Z,38.90
2018-02-14T17:47:49.991Z,39.30
2018-02-14T17:50:17.469Z,39.70
2018-02-14T17:52:45.710Z,40.60
2018-02-14T17:55:13.206Z,40.60
2018-02-14T17:57:40.659Z,41.10
2018-02-14T18:00:08.192Z,41.30
2018-02-14T18:02:35.666Z,41.60
2018-02-14T18:05:03.919Z,42.20
2018-02-14T18:07:31.386Z,42.00
2018-02-14T18:09:59.668Z,42.10
2018-02-14T18:12:27.928Z,42.10
2018-02-14T18:14:55.407Z,42.10
2018-02-14T18:17:22.890Z,41.90
2018-02-14T18:19:50.378Z,42.00
2018-02-14T18:22:17.869Z,42.20
2018-02-14T18:24:46.226Z,42.30
2018-02-14T18:27:13.707Z,42.30
2018-02-14T18:29:42.002Z,42.40
2018-02-14T18:32:09.471Z,42.40
2018-02-14T18:34:36.962Z,42.60
2018-02-14T18:37:04.455Z,42.80
2018-02-14T18:39:32.182Z,42.80
2018-02-14T18:42:00.110Z,42.80
2018-02-14T18:44:27.584Z,43.20
2018-02-14T18:46:55.089Z,43.20
2018-02-14T18:49:23.426Z,43.60
2018-02-14T18:51:50.942Z,43.60
2018-02-14T18:54:18.445Z,43.80
2018-02-14T18:56:46.349Z,44.10
2018-02-14T18:59:13.840Z,44.30
2018-02-14T19:01:41.482Z,44.60
2018-02-14T19:04:08.989Z,44.70
2018-02-14T19:06:36.498Z,44.90
2018-02-14T19:09:05.580Z,45.00
2018-02-14T19:11:33.312Z,45.50
2018-02-14T19:14:01.453Z,45.00
2018-02-14T19:16:30.747Z,45.20
2018-02-14T19:18:59.351Z,45.20
2018-02-14T19:21:26.892Z,45.30
2018-02-14T19:23:54.411Z,45.40
2018-02-14T19:26:21.915Z,45.40
2018-02-14T19:28:49.415Z,46.10
2018-02-14T19:31:16.962Z,45.60
2018-02-14T19:33:45.498Z,45.90
2018-02-14T19:36:13.042Z,45.90
2018-02-14T19:38:41.615Z,46.00
2018-02-14T19:41:09.128Z,46.10
2018-02-14T19:43:37.409Z,46.50
2018-02-14T19:46:05.719Z,46.50
2018-02-14T19:48:33.255Z,46.50
2018-02-14T19:51:03.472Z,46.80
2018-02-14T19:53:31.528Z,46.80
2018-02-14T19:55:59.221Z,46.70
2018-02-14T19:58:26.750Z,46.60
2018-02-14T20:00:55.967Z,46.80
2018-02-14T20:03:23.616Z,46.80
2018-02-14T20:05:51.907Z,47.10
2018-02-14T20:08:19.385Z,47.10
2018-02-14T20:10:46.891Z,47.20
2018-02-14T20:13:15.233Z,47.50
2018-02-14T20:15:42.872Z,47.50
2018-02-14T20:18:10.370Z,47.50
2018-02-14T20:20:37.903Z,47.70
2018-02-14T20:23:05.383Z,47.80
2018-02-14T20:25:34.716Z,47.90
2018-02-14T20:28:03.163Z,48.20
2018-02-14T20:30:30.790Z,48.10
2018-02-14T20:32:58.302Z,48.20
2018-02-14T20:35:26.559Z,48.50
2018-02-14T20:37:54.890Z,48.70
2018-02-14T20:40:22.410Z,48.70
2018-02-14T20:42:52.677Z,48.90
2018-02-14T20:45:20.172Z,48.90
2018-02-14T20:47:47.680Z,48.90
2018-02-14T20:50:15.144Z,49.00
2018-02-14T20:52:42.709Z,49.00
2018-02-14T20:55:10.181Z,49.20
2018-02-14T20:57:37.667Z,49.10
2018-02-14T21:00:05.924Z,49.00
2018-02-14T21:02:33.402Z,49.00
2018-02-14T21:05:00.892Z,49.10
2018-02-14T21:07:28.380Z,49.30
2018-02-14T21:09:55.879Z,49.20
2018-02-14T21:12:23.359Z,49.00
2018-02-14T21:14:50.841Z,49.00
2018-02-14T21:17:18.540Z,49.00
2018-02-14T21:19:46.799Z,49.00
2018-02-14T21:22:14.277Z,49.00
2018-02-14T21:24:42.546Z,49.00
2018-02-14T21:27:10.836Z,48.90
2018-02-14T21:29:38.328Z,48.90
2018-02-14T21:32:05.795Z,49.00
2018-02-14T21:34:33.279Z,49.00
2018-02-14T21:37:01.516Z,48.80
2018-02-14T21:39:28.998Z,48.80
2018-02-14T21:41:56.521Z,48.80
2018-02-14T21:44:23.982Z,49.00
2018-02-14T21:46:51.503Z,49.10
2018-02-14T21:49:19.754Z,48.80
2018-02-14T21:51:48.003Z,48.60
2018-02-14T21:54:15.499Z,48.60
2018-02-14T21:56:42.970Z,48.80
2018-02-14T21:59:10.441Z,48.80
2018-02-14T22:01:37.929Z,48.90
2018-02-14T22:04:05.402Z,48.70
2018-02-14T22:06:32.888Z,48.80
2018-02-14T22:09:00.365Z,48.90
2018-02-14T22:11:27.867Z,48.90
2018-02-14T22:13:55.349Z,49.00
2018-02-14T22:16:23.694Z,49.10
2018-02-14T22:18:51.202Z,49.10
2018-02-14T22:21:18.689Z,49.00
2018-02-14T22:23:46.146Z,49.40
2018-02-14T22:26:13.640Z,49.20
2018-02-14T22:28:41.873Z,49.30
2018-02-14T22:31:09.375Z,49.30
2018-02-14T22:33:37.645Z,49.50
2018-02-14T22:36:05.902Z,49.50
2018-02-14T22:38:33.382Z,49.50
2018-02-14T22:41:01.622Z,49.80
2018-02-14T22:43:29.110Z,49.80
2018-02-14T22:45:57.378Z,49.80
2018-02-14T22:48:25.639Z,49.80
2018-02-14T22:50:53.129Z,49.80
2018-02-14T22:53:20.654Z,49.70
2018-02-14T22:55:48.158Z,49.60
2018-02-14T22:58:15.656Z,49.90
2018-02-14T23:00:43.148Z,49.80
2018-02-14T23:03:11.394Z,49.70
2018-02-14T23:05:40.295Z,49.70
2018-02-14T23:08:08.550Z,49.80
2018-02-14T23:10:36.033Z,49.70
2018-02-14T23:13:04.302Z,49.90
2018-02-14T23:15:32.597Z,49.70
2018-02-14T23:18:00.078Z,49.70
2018-02-14T23:20:27.557Z,49.50
2018-02-14T23:22:55.032Z,49.40
2018-02-14T23:25:22.535Z,49.20
2018-02-14T23:27:50.076Z,49.40
2018-02-14T23:30:17.553Z,49.40
2018-02-14T23:32:45.043Z,49.20
2018-02-14T23:35:12.523Z,49.10
2018-02-14T23:37:39.997Z,49.20
2018-02-14T23:40:07.499Z,49.10
2018-02-14T23:42:35.739Z,49.00
2018-02-14T23:45:03.211Z,49.00
2018-02-14T23:47:30.674Z,49.10
2018-02-14T23:49:58.171Z,48.90
2018-02-14T23:52:25.672Z,48.90
2018-02-14T23:54:53.145Z,49.00
2018-02-14T23:57:20.635Z,48.80
2018-02-14T23:59:48.135Z,48.70
